Flight Track Log - Related Links

Times and Time Zones

All times are in EDT time to prevent confusion due to time zone crossing. See the AWE583 flight status page for this flight to view local times or setup timezone preferences in your user account.


Time Position Orientation Groundspeed Altitude Reporting Facility
EDT Latitude Longitude Course Direction KTS MPH feet Rate Location/Type
Mon 07:58:57 AM 39.9906 -82.8753 270° West 157 181 1,500  Level Indianapolis Center
Mon 08:00:13 AM 39.9939 -82.8000 87° East 180 207 3,400 1,648 Climbing Indianapolis Center
Mon 08:00:28 AM 39.9942 -82.7722 89° East 222 255 4,000 1,935 Climbing Indianapolis Center
Mon 08:01:00 AM 40.0000 -83.3257 270° West  Level FlightAware Approximate
Mon 08:01:15 AM 40.0203 -82.7244 54° Northeast 223 257 5,400  Level Indianapolis Center
Mon 08:02:00 AM 40.0000 -83.4741 270° West  Level FlightAware Approximate
Mon 08:02:17 AM 40.0744 -82.7814 321° Northwest 293 337 8,500  Level Indianapolis Center
Mon 08:03:00 AM 40.0000 -83.6225 270° West  Level FlightAware Approximate
Mon 08:03:19 AM 40.0867 -82.9064 277° West 288 331 11,400  Level Indianapolis Center
Mon 08:04:00 AM 40.0000 -83.7709 270° West  Level FlightAware Approximate
Mon 08:04:20 AM 40.1017 -83.0228 280° West 317 365 13,900  Level Indianapolis Center
Mon 08:05:22 AM 40.0942 -83.1381 265° West 318 366 16,400 2,226 Climbing Indianapolis Center
Mon 08:06:24 AM 40.0861 -83.2564 265° West 326 375 18,500 2,032 Climbing Indianapolis Center
Mon 08:07:26 AM 40.0769 -83.3783 264° West 336 387 20,600 2,274 Climbing Indianapolis Center
Mon 08:08:28 AM 40.0664 -83.5244 265° West 340 391 23,200 2,293 Climbing Indianapolis Center
Mon 08:09:29 AM 40.0578 -83.6419 265° West 337 388 25,300 1,561 Climbing Indianapolis Center
Mon 08:10:31 AM 40.0475 -83.7622 264° West 334 384 26,400 1,258 Climbing Indianapolis Center
Mon 08:11:33 AM 40.0389 -83.8881 265° West 347 399 27,900 774 Climbing Indianapolis Center
Mon 08:12:35 AM 40.0275 -84.0136 263° West 347 399 28,000 48 Climbing Indianapolis Center
Mon 08:13:37 AM 40.0175 -84.1397 264° West 349 402 28,000 290 Level Indianapolis Center
Mon 08:14:39 AM 40.0058 -84.2878 264° West 347 399 28,600 488 Climbing Indianapolis Center
Mon 08:15:40 AM 39.9953 -84.4097 264° West 345 397 29,000 195 Climbing Indianapolis Center
Mon 08:16:42 AM 39.9847 -84.5303 264° West 341 392 29,000 97 Level Indianapolis Center
Mon 08:17:44 AM 39.9753 -84.6506 264° West 339 390 29,200 484 Climbing Indianapolis Center
Mon 08:18:46 AM 39.9653 -84.7725 264° West 338 389 30,000 387 Climbing Indianapolis Center
Mon 08:19:48 AM 39.9519 -84.9072 263° West 340 391 30,000  Level Indianapolis Center
Mon 08:20:49 AM 39.9419 -85.0286 264° West 340 391 30,000  Level Indianapolis Center
Mon 08:21:51 AM 39.9303 -85.1531 263° West 343 395 30,000 48 Level Indianapolis Center
Mon 08:22:53 AM 39.9189 -85.2778 263° West 346 398 30,100  Climbing Indianapolis Center
Mon 08:23:55 AM 39.9058 -85.4244 263° West 345 397 30,000 -48 Descending Indianapolis Center
Mon 08:24:57 AM 39.8947 -85.5469 263° West 345 397 30,000  Level Indianapolis Center
Mon 08:25:59 AM 39.8836 -85.6681 263° West 342 394 30,000  Level Indianapolis Center
Mon 08:27:01 AM 39.8719 -85.7897 263° West 342 394 30,000  Level Indianapolis Center
Mon 08:28:02 AM 39.8594 -85.9125 262° West 342 394 30,000  Level Indianapolis Center
Mon 08:29:04 AM 39.8478 -86.0350 263° West 342 394 30,000  Level Indianapolis Center
Mon 08:30:06 AM 39.8331 -86.1817 263° West 342 394 30,000  Level Indianapolis Center
Mon 08:31:08 AM 39.8211 -86.3033 263° West 344 396 30,000  Level Indianapolis Center
Mon 08:32:10 AM 39.8158 -86.4275 267° West 349 402 30,000  Level Indianapolis Center
Mon 08:33:12 AM 39.8183 -86.5583 271° West 363 418 30,000  Level Indianapolis Center
Mon 08:34:14 AM 39.8214 -86.7178 271° West 366 421 30,000 387 Level Indianapolis Center
Mon 08:35:16 AM 39.8236 -86.8478 271° West 366 421 30,800 774 Climbing Indianapolis Center
Mon 08:36:18 AM 39.8261 -86.9794 271° West 365 420 31,600 585 Climbing Indianapolis Center
Mon 08:37:19 AM 39.8286 -87.1125 271° West 367 422 32,000 195 Climbing Indianapolis Center
Mon 08:38:21 AM 39.8294 -87.2514 270° West 378 435 32,000  Level Indianapolis Center
Mon 08:39:23 AM 39.8319 -87.3881 271° West 378 435 32,000  Level Indianapolis Center
Mon 08:40:25 AM 39.8336 -87.5556 271° West 381 438 32,000  Level Indianapolis Center
Mon 08:41:27 AM 39.8361 -87.6939 271° West 382 440 32,000 48 Level Indianapolis Center
Mon 08:42:29 AM 39.8367 -87.8311 270° West 382 440 32,100 488 Climbing Indianapolis Center
Mon 08:43:30 AM 39.8383 -87.9692 271° West 382 440 33,000 878 Climbing Indianapolis Center
Mon 08:44:32 AM 39.8386 -88.1086 270° West 383 441 33,900 484 Climbing Indianapolis Center
Mon 08:45:34 AM 39.8400 -88.2483 271° West 385 443 34,000 48 Climbing Indianapolis Center
Mon 08:46:36 AM 39.8411 -88.3900 271° West 387 445 34,000  Level Indianapolis Center
Mon 08:47:38 AM 39.8417 -88.5636 270° West 397 457 34,000 48 Level Indianapolis Center
Mon 08:48:40 AM 39.8425 -88.7092 270° West 402 463 34,100  Climbing Indianapolis Center
Mon 08:49:41 AM 39.8414 -88.8536 269° West 402 463 34,000 -49 Descending Indianapolis Center
Mon 08:50:43 AM 39.8428 -88.9958 271° West 400 460 34,000 -48 Level Indianapolis Center
Mon 08:51:45 AM 39.8425 -89.1367 270° West 397 457 33,900  Descending Indianapolis Center
Mon 08:52:47 AM 39.8408 -89.2789 269° West 395 455 34,000 48 Climbing Indianapolis Center
Mon 08:53:49 AM 39.8419 -89.4483 271° West 394 453 34,000  Level Indianapolis Center
Mon 08:55:10 AM 39.8397 -89.6228 269° West 393 452 34,000  Level Kansas City Center
Mon 08:56:12 AM 39.8328 -89.7625 266° West 393 452 34,000  Level Kansas City Center
Mon 08:57:12 AM 39.8200 -89.9022 263° West 391 450 34,000  Level Kansas City Center
Mon 08:58:14 AM 39.8075 -90.0406 263° West 388 447 34,000  Level Kansas City Center
Mon 08:59:17 AM 39.7947 -90.1808 263° West 388 447 34,000  Level Kansas City Center
Mon 09:00:17 AM 39.7789 -90.3467 263° West 388 447 34,000  Level Kansas City Center
Mon 09:01:18 AM 39.7664 -90.4861 263° West 388 447 34,000  Level Kansas City Center
Mon 09:02:21 AM 39.7539 -90.6250 263° West 388 447 34,000  Level Kansas City Center
Mon 09:03:22 AM 39.7403 -90.7617 263° West 388 447 34,000  Level Kansas City Center
Mon 09:04:22 AM 39.7272 -90.8992 263° West 388 447 34,000  Level Kansas City Center
Mon 09:05:25 AM 39.7125 -91.0378 262° West 388 447 34,000  Level Kansas City Center
Mon 09:06:26 AM 39.6992 -91.1786 263° West 390 449 34,000  Level Kansas City Center
Mon 09:07:26 AM 39.6847 -91.3292 263° West 393 452 34,000  Level Kansas City Center
Mon 09:08:27 AM 39.6683 -91.4725 262° West 398 458 34,000  Level Kansas City Center
Mon 09:09:31 AM 39.6547 -91.6150 263° West 398 458 34,000  Level Kansas City Center
Mon 09:10:31 AM 39.6361 -91.7847 262° West 398 458 34,000  Level Kansas City Center
Mon 09:11:33 AM 39.6219 -91.9258 263° West 398 458 34,000  Level Kansas City Center
Mon 09:12:35 AM 39.6069 -92.0692 262° West 398 458 34,000  Level Kansas City Center
Mon 09:13:37 AM 39.5917 -92.2119 262° West 399 459 34,000  Level Kansas City Center
Mon 09:14:37 AM 39.5753 -92.3547 262° West 400 460 34,000  Level Kansas City Center
Mon 09:15:38 AM 39.5592 -92.4967 262° West 400 460 34,000  Level Kansas City Center
Mon 09:16:39 AM 39.5439 -92.6403 262° West 400 460 34,000 339 Level Kansas City Center
Mon 09:17:42 AM 39.5261 -92.7836 261° West 401 461 34,700 492 Climbing Kansas City Center
Mon 09:18:41 AM 39.5092 -92.9292 261° West 406 467 35,000 150 Climbing Kansas City Center
Mon 09:19:42 AM 39.4897 -93.1008 262° West 406 467 35,000  Level Kansas City Center
Mon 09:20:46 AM 39.4711 -93.2469 261° West 407 468 35,000  Level Kansas City Center
Mon 09:21:48 AM 39.4544 -93.3917 262° West 407 468 35,000  Level Kansas City Center
Mon 09:22:47 AM 39.4372 -93.5378 261° West 411 473 35,000  Level Kansas City Center
Mon 09:23:50 AM 39.4200 -93.6825 261° West 411 473 35,000  Level Kansas City Center
Mon 09:24:51 AM 39.3989 -93.8517 261° West 412 474 35,000  Level Kansas City Center
Mon 09:25:51 AM 39.3808 -93.9969 261° West 412 474 35,000  Level Kansas City Center
Mon 09:26:54 AM 39.3608 -94.1542 261° West 412 474 35,000  Level Kansas City Center
Mon 09:27:55 AM 39.3425 -94.3008 261° West 413 475 35,000  Level Kansas City Center
Mon 09:28:56 AM 39.3239 -94.4478 261° West 413 475 35,000  Level Kansas City Center
Mon 09:29:59 AM 39.3044 -94.5964 260° West 417 480 35,000  Level Kansas City Center
Mon 09:31:00 AM 39.2850 -94.7508 261° West 417 480 35,000  Level Kansas City Center
Mon 09:32:00 AM 39.2675 -94.9086 262° West 419 482 35,000 145 Level Kansas City Center
Mon 09:33:04 AM 39.2522 -95.0578 263° West 419 482 35,300 384 Climbing Kansas City Center
Mon 09:34:05 AM 39.2369 -95.2061 262° West 421 484 35,800 344 Climbing Kansas City Center
Mon 09:35:06 AM 39.2203 -95.3622 262° West 420 483 36,000 98 Climbing Kansas City Center
Mon 09:36:07 AM 39.2036 -95.5169 262° West 420 483 36,000  Level Kansas City Center
Mon 09:37:09 AM 39.1878 -95.6681 262° West 425 489 36,000 48 Level Kansas City Center
Mon 09:38:12 AM 39.1708 -95.8239 262° West 428 493 36,100 48 Climbing Kansas City Center
Mon 09:39:13 AM 39.1528 -95.9833 262° West 430 495 36,100 -49 Level Kansas City Center
Mon 09:40:15 AM 39.1344 -96.1419 262° West 430 495 36,000 -49 Descending Kansas City Center
Mon 09:41:16 AM 39.1161 -96.2986 261° West 425 489 36,000  Level Kansas City Center
Mon 09:42:16 AM 39.1000 -96.4419 262° West 425 489 36,000  Level Kansas City Center
Mon 09:43:20 AM 39.0806 -96.5994 261° West 424 488 36,000  Level Kansas City Center
Mon 09:44:20 AM 39.0636 -96.7467 262° West 420 483 36,000  Level Kansas City Center
Mon 09:45:24 AM 39.0461 -96.8944 261° West 420 483 36,000  Level Kansas City Center
Mon 09:46:25 AM 39.0275 -97.0406 261° West 420 483 36,000  Level Kansas City Center
Mon 09:47:26 AM 39.0083 -97.2078 262° West 420 483 36,000  Level Kansas City Center
Mon 09:48:27 AM 38.9883 -97.3650 261° West 425 489 36,000 48 Level Kansas City Center
Mon 09:49:30 AM 38.9689 -97.5183 261° West 426 490 36,100  Climbing Kansas City Center
Mon 09:50:31 AM 38.9500 -97.6692 261° West 427 491 36,000 -50 Descending Kansas City Center
Mon 09:51:31 AM 38.9308 -97.8203 261° West 428 493 36,000  Level Kansas City Center
Mon 09:52:35 AM 38.9114 -97.9708 261° West 428 493 36,000 48 Level Kansas City Center
Mon 09:53:35 AM 38.8922 -98.1222 261° West 429 494 36,100  Climbing Kansas City Center
Mon 09:54:38 AM 38.8725 -98.2728 260° West 429 494 36,000 -97 Descending Kansas City Center
Mon 09:55:39 AM 38.8522 -98.4217 260° West 429 494 35,900  Descending Kansas City Center
Mon 09:56:43 AM 38.8283 -98.6014 260° West 429 494 36,000 48 Climbing Kansas City Center
Mon 09:57:44 AM 38.8078 -98.7528 260° West 430 495 36,000  Level Kansas City Center
Mon 09:58:44 AM 38.7858 -98.9044 260° West 433 498 36,000  Level Kansas City Center
Mon 09:59:46 AM 38.7658 -99.0561 260° West 433 498 36,000  Level Kansas City Center
Mon 10:00:49 AM 38.7436 -99.2089 259° West 436 502 36,000  Level Kansas City Center
Mon 10:01:49 AM 38.7222 -99.3581 260° West 432 497 36,000  Level Kansas City Center
Mon 10:02:53 AM 38.6950 -99.5464 260° West 433 498 36,000  Level Kansas City Center
Mon 10:03:53 AM 38.6531 -99.6825 249° West 433 498 36,000  Level Kansas City Center
Mon 10:04:54 AM 38.6111 -99.8189 249° West 432 497 36,000  Level Kansas City Center
Mon 10:05:58 AM 38.5619 -99.9772 248° West 432 497 36,000  Level Kansas City Center
Mon 10:06:59 AM 38.5203 -100.1097 248° West 426 490 36,000  Level Kansas City Center
Mon 10:07:59 AM 38.4592 -100.2603 243° Southwest 425 489 36,000  Level Kansas City Center
Mon 10:09:03 AM 38.4083 -100.3892 243° Southwest 426 490 36,000  Level Kansas City Center
Mon 10:10:05 AM 38.3483 -100.5414 243° Southwest 427 491 36,000 49 Level Kansas City Center
Mon 10:11:05 AM 38.2961 -100.6692 243° Southwest 428 493 36,100  Climbing Kansas City Center
Mon 10:12:09 AM 38.2350 -100.8192 243° Southwest 428 493 36,000 -48 Descending Kansas City Center
Mon 10:13:09 AM 38.1828 -100.9475 243° Southwest 428 493 36,000  Level Kansas City Center
Mon 10:14:10 AM 38.1222 -101.0972 243° Southwest 428 493 36,000  Level Kansas City Center
Mon 10:16:15 AM 38.0083 -101.3769 243° Southwest 430 495 36,000 32 Level Albuquerque Center
Mon 10:17:17 AM 37.9536 -101.5067 242° Southwest 434 499 36,100  Climbing Albuquerque Center
Mon 10:18:17 AM 37.9006 -101.6364 243° Southwest 436 502 36,000 -48 Descending Kansas City Center
Mon 10:19:21 AM 37.8381 -101.7878 242° Southwest 436 502 36,000  Level Kansas City Center
Mon 10:20:21 AM 37.7836 -101.9169 242° Southwest 436 502 36,000  Level Kansas City Center
Mon 10:21:22 AM 37.7208 -102.0675 242° Southwest 436 502 36,000 -48 Level Kansas City Center
Mon 10:22:26 AM 37.6658 -102.1964 242° Southwest 436 502 35,900  Descending Kansas City Center
Mon 10:24:08 AM 37.5658 -102.4347 242° Southwest 437 503 36,000 44 Climbing Denver Center
Mon 10:24:42 AM 37.5372 -102.5003 241° Southwest 440 506 36,000  Level Kansas City Center
Mon 10:25:42 AM 37.4714 -102.6556 242° Southwest 446 513 36,000 67 Level Kansas City Center
Mon 10:26:12 AM 37.4461 -102.7156 242° Southwest 448 516 36,100 65 Climbing Denver Center
Mon 10:27:14 AM 37.3800 -102.8717 242° Southwest 451 519 36,100 -49 Level Denver Center
Mon 10:28:15 AM 37.3217 -103.0069 242° Southwest 454 522 36,000 -65 Descending Denver Center
Mon 10:28:47 AM 37.2894 -103.0781 240° Southwest 453 521 36,000 97 Level Kansas City Center
Mon 10:29:17 AM 37.2542 -103.1619 242° Southwest 453 521 36,100  Climbing Denver Center
Mon 10:30:19 AM 37.1961 -103.2942 241° Southwest 453 521 36,000 -48 Descending Denver Center
Mon 10:31:21 AM 37.0989 -103.4206 226° Southwest 465 535 36,000  Level Denver Center
Mon 10:32:23 AM 36.9817 -103.4839 203° Southwest 475 547 36,000  Level Denver Center
Mon 10:33:25 AM 36.8664 -103.5511 205° Southwest 477 549 36,000  Level Denver Center
Mon 10:34:26 AM 36.7822 -103.6972 234° Southwest 469 540 36,000  Level Denver Center
Mon 10:35:28 AM 36.7397 -103.8383 249° West 457 526 36,000 48 Level Denver Center
Mon 10:36:30 AM 36.6892 -104.0042 249° West 455 524 36,100  Climbing Denver Center
Mon 10:37:32 AM 36.6458 -104.1447 249° West 454 522 36,000 -48 Descending Denver Center
Mon 10:38:34 AM 36.6033 -104.2811 249° West 445 512 36,000  Level Denver Center
Mon 10:39:36 AM 36.5547 -104.4417 249° West 444 511 36,000  Level Denver Center
Mon 10:40:55 AM 36.4961 -104.6236 248° West 442 509 36,000  Level Albuquerque Center
Mon 10:41:57 AM 36.4528 -104.7650 249° West 441 507 36,000  Level Albuquerque Center
Mon 10:42:59 AM 36.4067 -104.9089 248° West 441 507 36,000  Level Albuquerque Center
Mon 10:44:01 AM 36.3617 -105.0531 249° West 444 511 36,000  Level Albuquerque Center
Mon 10:45:03 AM 36.3072 -105.2231 248° West 449 517 36,000  Level Albuquerque Center
Mon 10:46:04 AM 36.2583 -105.3725 248° West 460 529 36,000  Level Albuquerque Center
Mon 10:47:06 AM 36.2119 -105.5192 249° West 459 528 36,000  Level Albuquerque Center
Mon 10:48:08 AM 36.1636 -105.6675 248° West 459 528 36,000 -48 Level Albuquerque Center
Mon 10:49:10 AM 36.1161 -105.8136 248° West 459 528 35,900  Descending Albuquerque Center
Mon 10:50:12 AM 36.0694 -105.9586 248° West 459 528 36,000 49 Climbing Albuquerque Center
Mon 10:51:13 AM 36.0233 -106.1014 248° West 456 525 36,000 -49 Level Albuquerque Center
Mon 10:52:15 AM 35.9675 -106.2711 248° West 454 522 35,900 -48 Descending Albuquerque Center
Mon 10:53:17 AM 35.9214 -106.4092 248° West 447 514 35,900  Level Albuquerque Center
Mon 10:54:19 AM 35.8731 -106.5486 247° West 438 504 35,900  Level Albuquerque Center
Mon 10:55:21 AM 35.8289 -106.6825 248° West 442 509 35,900 49 Level Albuquerque Center
Mon 10:56:22 AM 35.7747 -106.8403 247° West 443 510 36,000 49 Climbing Albuquerque Center
Mon 10:57:24 AM 35.7303 -106.9789 248° West 450 518 36,000  Level Albuquerque Center
Mon 10:58:26 AM 35.6769 -107.1336 247° West 446 513 36,000  Level Albuquerque Center
Mon 10:59:28 AM 35.6900 -107.2539 278° West 384 442 36,000  Level Albuquerque Center
Mon 11:00:30 AM 35.7428 -107.3731 299° West 357 411 36,000  Level Albuquerque Center
Mon 11:01:31 AM 35.7881 -107.4750 299° West 357 411 36,000  Level Albuquerque Center
Mon 11:02:33 AM 35.8425 -107.5911 300° West 355 409 36,000  Level Albuquerque Center
Mon 11:03:35 AM 35.8875 -107.6928 299° West 354 407 36,000  Level Albuquerque Center
Mon 11:04:37 AM 35.9319 -107.7939 299° West 354 407 36,000  Level Albuquerque Center
Mon 11:05:39 AM 35.9847 -107.9114 299° West 353 406 36,000  Level Albuquerque Center
Mon 11:06:41 AM 36.0092 -108.0275 285° West 376 433 36,000  Level Albuquerque Center
Mon 11:07:43 AM 35.9686 -108.1781 252° West 420 483 36,000  Level Albuquerque Center
Mon 11:08:45 AM 35.8842 -108.2933 228° Southwest 463 533 36,000  Level Albuquerque Center
Mon 11:09:47 AM 35.7839 -108.4306 228° Southwest 474 545 36,000  Level Albuquerque Center
Mon 11:10:49 AM 35.6956 -108.5489 227° Southwest 480 552 36,000  Level Albuquerque Center
Mon 11:11:51 AM 35.5947 -108.6836 227° Southwest 481 554 36,000 -48 Level Albuquerque Center
Mon 11:12:53 AM 35.5111 -108.7967 228° Southwest 474 545 35,900  Descending Albuquerque Center
Mon 11:13:55 AM 35.4258 -108.9092 227° Southwest 471 542 36,000 48 Climbing Albuquerque Center
Mon 11:14:57 AM 35.3264 -109.0411 227° Southwest 470 541 36,000 48 Level Albuquerque Center
Mon 11:15:59 AM 35.2411 -109.1536 227° Southwest 470 541 36,100  Climbing Albuquerque Center
Mon 11:17:01 AM 35.1419 -109.2861 228° Southwest 470 541 36,000 -48 Descending Albuquerque Center
Mon 11:18:03 AM 35.0553 -109.3986 227° Southwest 470 541 36,000  Level Albuquerque Center
Mon 11:19:05 AM 34.9547 -109.5319 227° Southwest 472 543 36,000  Level Albuquerque Center
Mon 11:20:08 AM 34.8669 -109.6464 227° Southwest 476 548 36,000 48 Level Albuquerque Center
Mon 11:21:10 AM 34.7656 -109.7811 228° Southwest 480 552 36,100  Climbing Albuquerque Center
Mon 11:22:12 AM 34.6922 -109.9053 234° Southwest 474 545 36,000 -48 Descending Albuquerque Center
Mon 11:23:14 AM 34.6331 -110.0561 245° Southwest 450 518 36,000  Level Albuquerque Center
Mon 11:24:16 AM 34.5872 -110.1936 248° West 453 521 36,000 -1,452 Level Albuquerque Center
Mon 11:25:18 AM 34.5267 -110.3408 244° Southwest 440 506 33,000 -2,758 Descending Albuquerque Center
Mon 11:26:20 AM 34.4825 -110.4639 247° West 445 512 30,300 -2,226 Descending Albuquerque Center
Mon 11:27:22 AM 34.4336 -110.5972 246° West 438 504 28,400 -1,839 Descending Albuquerque Center
Mon 11:28:24 AM 34.3839 -110.7250 245° Southwest 427 491 26,500 -2,177 Descending Albuquerque Center
Mon 11:29:26 AM 34.3056 -110.8592 235° Southwest 416 479 23,900 -2,323 Descending Albuquerque Center
Mon 11:30:28 AM 34.2289 -110.9583 227° Southwest 407 468 21,700 -1,887 Descending Albuquerque Center
Mon 11:31:30 AM 34.1525 -111.0561 227° Southwest 406 467 20,000 -1,597 Descending Albuquerque Center
Mon 11:32:32 AM 34.0803 -111.1489 227° Southwest 389 448 18,400 -1,452 Descending Albuquerque Center
Mon 11:33:34 AM 34.0111 -111.2378 227° Southwest 371 427 17,000 -1,440 Descending Albuquerque Center
Mon 11:34:37 AM 33.9447 -111.3228 227° Southwest 352 405 15,400 -1,248 Descending Albuquerque Center
Mon 11:35:39 AM 33.8717 -111.4228 229° Southwest 330 380 14,400 -823 Descending Albuquerque Center
Mon 11:36:41 AM 33.8261 -111.5100 238° Southwest 310 357 13,700 -1,306 Descending Albuquerque Center
Mon 11:37:43 AM 33.7772 -111.6025 238° Southwest 322 371 11,700 -1,645 Descending Albuquerque Center
Mon 11:38:45 AM 33.7308 -111.6908 238° Southwest 312 359 10,300 -1,016 Descending Albuquerque Center
Mon 11:39:47 AM 33.6867 -111.7714 237° Southwest 291 335 9,600 -581 Descending Albuquerque Center
Mon 11:40:49 AM 33.6475 -111.8431 237° Southwest 260 299 9,100 -290 Descending Albuquerque Center
Mon 11:41:51 AM 33.6075 -111.9156 236° Southwest 259 298 9,000 -387 Descending Albuquerque Center
Mon 11:42:53 AM 33.5711 -111.9856 238° Southwest 251 289 8,300 -919 Descending Albuquerque Center
Mon 11:43:55 AM 33.5300 -112.0653 238° Southwest 239 275 7,100 -871 Descending Albuquerque Center
Mon 11:44:57 AM 33.5269 -112.1364 267° West 214 246 6,500 -823 Descending Albuquerque Center
Mon 11:45:59 AM 33.5258 -112.2036 269° West 207 238 5,400 -677 Descending Albuquerque Center
Mon 11:47:01 AM 33.4961 -112.2442 229° Southwest 202 232 5,100 -629 Descending Albuquerque Center
Mon 11:48:03 AM 33.4472 -112.2364 172° South 190 219 4,100 -677 Descending Albuquerque Center
Mon 11:49:05 AM 33.4411 -112.1842 98° East 165 190 3,700 -677 Descending Albuquerque Center
Mon 11:50:07 AM 33.4408 -112.1239 90° East 157 181 2,700 -823 Descending Albuquerque Center
Mon 11:51:09 AM 33.4408 -112.0775 90° East 145 167 2,000 -726 Descending Albuquerque Center
Mon 11:52:11 AM 33.4408 -112.0308 90° East 144 166 1,200 -774 Descending Albuquerque Center

Login

Don't have an account? Register now (free) for customized features, flight alerts, and more!